Grindstone, Texas
Current Conditions -  °F | °C
As of 12:53 AM on Thursday 23 Oct 2014 (Local Time) from KCRS Reporting Station
Clear Clear  
Wind Chill: 66°   Ceiling: Unl
Heat Index: 66°   Visibility: 10mi
Dew Point: 55°   Wind: 3mph
Humidity: 68%   Direction: 100°E
Pressure: 30.12"   Gusts: NA
Location:  31.8162°N, 96.1239°W
Report Text: KCRS 230553Z AUTO 10003KT 10SM CLR 19/13 A3012 RMK AO2 SLP195 T01890128 10222 20189 402720156 58003
Loading
Personal Weather Stations






























Interactive Weather Map
Tropical Storm Tracking
New forecast layout! Learn more

10-Day Weather Forecast

Advertisements
Track Severe Weather on mobile